Latest Weather Observations for Richmond

IDN60901

Issued at 1:05 am EST Sunday 27 July 2014 (issued every 10 minutes, with the page automatically refreshed every 10 minutes)

About weather observations | Map of Sydney area stations | Latest observations for Sydney area | Other Formats
Station Details ID: 067105 Name: RICHMOND RAAF Lat: -33.60 Lon: 150.78 Height: 19.0 m
Data from the previous 72 hours. | See also: Recent months at Richmond
Date/Time
EST
Tmp

°C
App
Tmp
°C
Dew
Point
°C
Rel
Hum
%
Delta-T

°C
Wind Press
QNH
hPa
Press
MSL
hPa
Rain
since
9 am
mm
Dir
 
Spd
km/h
Gust
km/h
Spd
kts
Gust
kts
27/01:00am 5.0 3.7 4.1 94 0.4 CALM 0 0 0 0 1023.3 1023.4 1.6
27/12:30am 5.5 4.3 4.8 95 0.3 CALM 0 0 0 0 1023.4 - 1.6
27/12:00am 6.0 4.8 4.6 91 0.6 WNW 0 0 0 0 1023.4 1023.5 1.6
 
Date/Time
EST
Tmp

°C
App
Tmp
°C
Dew
Point
°C
Rel
Hum
%
Delta-T

°C
Wind Press
QNH
hPa
Press
MSL
hPa
Rain
since
9 am
mm
Dir
 
Spd
km/h
Gust
km/h
Spd
kts
Gust
kts
26/11:30pm 6.6 5.6 5.4 92 0.5 CALM 0 6 0 3 1023.5 - 1.6
26/11:00pm 6.9 4.8 5.8 93 0.5 NW 6 7 3 4 1023.6 1023.7 1.6
26/10:30pm 7.6 6.6 5.7 88 0.9 CALM 0 0 0 0 1023.7 - 1.6
26/10:00pm 8.3 7.5 6.3 87 0.9 CALM 0 6 0 3 1023.7 1023.8 1.6
26/09:30pm 9.1 6.7 6.9 86 1.0 NNW 9 11 5 6 1023.6 - 1.6
26/09:00pm 8.3 6.2 5.9 85 1.1 W 6 9 3 5 1023.6 1023.7 1.6
26/08:30pm 9.7 7.9 8.1 90 0.8 W 7 9 4 5 1023.4 - 1.6
26/08:00pm 10.6 8.5 8.2 85 1.2 WSW 9 13 5 7 1023.2 1023.3 1.6
26/07:30pm 11.0 9.0 8.6 85 1.2 W 9 13 5 7 1023.0 - 1.6
26/07:00pm 12.3 11.0 9.9 85 1.2 W 7 9 4 5 1022.8 1022.9 1.6
26/06:30pm 12.8 11.3 9.3 79 1.8 S 7 11 4 6 1022.5 - 1.6
26/06:00pm 13.6 13.7 10.2 80 1.8 WSW 0 6 0 3 1022.0 1022.0 1.6
26/05:30pm 14.3 13.0 9.9 75 2.3 S 7 9 4 5 1021.5 - 1.6
26/05:00pm 15.5 13.7 9.6 68 3.0 NE 9 11 5 6 1021.1 1021.1 1.6
26/04:30pm 17.5 16.1 9.7 60 4.1 NNE 7 9 4 5 1020.9 - 1.6
26/04:00pm 18.1 16.1 10.0 59 4.3 NE 11 15 6 8 1020.7 1020.7 1.6
26/03:30pm 18.4 16.7 10.0 58 4.5 ENE 9 11 5 6 1020.7 - 1.6
26/03:00pm 18.1 16.7 11.0 63 3.8 SE 9 13 5 7 1020.9 1020.9 1.6
26/02:30pm 17.7 17.9 11.7 68 3.3 N 2 6 1 3 1020.5 - 1.6
26/02:00pm 17.8 17.8 11.1 65 3.6 W 2 7 1 4 1020.4 1020.4 1.6
26/01:30pm 17.4 16.9 11.9 70 3.0 N 6 9 3 5 1020.7 - 1.6
26/01:00pm 16.4 16.6 12.0 75 2.4 NNE 2 6 1 3 1021.0 1021.0 1.6
26/12:30pm 15.4 15.7 12.2 81 1.7 NNW 2 7 1 4 1021.9 - 1.6
26/12:00pm 13.6 13.1 12.5 93 0.6 NNE 7 11 4 6 1022.5 1022.5 1.6
26/11:30am 13.0 12.4 12.2 95 0.4 NNE 7 11 4 6 1022.9 - 1.6
26/11:00am 12.4 11.8 11.8 96 0.3 SW 6 11 3 6 1023.6 1023.7 1.6
26/10:30am 12.3 11.5 11.7 96 0.3 NW 7 11 4 6 1024.1 - 1.2
26/10:00am 12.0 10.8 11.5 97 0.3 NE 9 19 5 10 1024.3 1024.4 1.2
26/09:50am 11.9 9.9 11.4 97 0.3 NNE 13 20 7 11 1024.1 - 1.2
26/09:30am 11.9 10.7 11.6 98 0.2 NNW 9 13 5 7 1024.9 - 0.6
26/09:27am 11.8 10.6 11.5 98 0.2 NNW 9 13 5 7 1025.0 - 0.4
26/09:11am 12.0 12.0 11.2 95 0.4 ESE 2 7 1 4 1024.5 - 0.0
26/09:00am 11.9 12.0 11.4 97 0.3 ESE 2 7 1 4 1024.3 1024.4 -
26/08:30am 11.6 9.9 11.3 98 0.2 WSW 11 15 6 8 1024.9 - -
26/08:18am 11.6 9.9 11.3 98 0.2 SSW 11 17 6 9 1024.6 - -
26/08:10am 11.6 9.5 11.3 98 0.2 SW 13 17 7 9 1024.5 - -
26/08:00am 11.7 10.4 11.4 98 0.2 SSW 9 19 5 10 1024.4 1024.5 -
26/07:30am 11.4 10.1 11.1 98 0.2 SSW 9 13 5 7 1023.8 - -
26/07:29am 11.4 10.1 11.1 98 0.2 SSW 9 13 5 7 1023.8 - -
26/07:15am 11.2 9.0 10.9 98 0.2 SSW 13 17 7 9 1023.8 - -
26/07:00am 11.1 10.0 10.8 98 0.2 S 7 11 4 6 1023.6 1023.7 -
26/06:41am 11.4 10.9 10.9 97 0.3 SSW 4 7 2 4 1023.6 - -
26/06:30am 11.8 11.1 11.5 98 0.2 NE 6 9 3 5 1023.7 - -
26/06:00am 11.6 10.8 11.1 97 0.3 NE 6 7 3 4 1023.3 1023.4 -
26/05:30am 11.6 10.5 10.8 95 0.4 ENE 7 7 4 4 1023.0 - -
26/05:00am 11.6 10.1 10.7 94 0.5 ENE 9 11 5 6 1022.7 1022.7 -
26/04:30am 11.7 10.8 10.6 93 0.6 WSW 6 9 3 5 1022.9 - -
26/04:00am 12.0 12.1 10.1 88 1.0 CALM 0 0 0 0 1022.1 1022.1 -
26/03:30am 12.3 11.6 10.2 87 1.1 N 4 7 2 4 1022.1 - -
26/03:00am 12.3 10.7 10.2 87 1.1 N 9 11 5 6 1022.4 1022.4 0.0
26/02:30am 11.9 10.8 10.0 88 1.0 SSE 6 7 3 4 1022.2 - -
26/02:00am 11.8 10.6 9.7 87 1.1 NW 6 17 3 9 1022.6 1022.6 -
26/01:30am 12.0 11.9 9.6 85 1.2 CALM 0 4 0 2 1022.7 - -
26/01:00am 12.4 10.4 10.0 85 1.2 NNW 11 13 6 7 1022.4 1022.4 -
26/12:30am 12.5 11.2 9.9 84 1.3 NNE 7 9 4 5 1022.5 - -
26/12:00am 13.1 11.9 9.7 80 1.7 N 6 7 3 4 1022.7 1022.7 -
 
Date/Time
EST
Tmp

°C
App
Tmp
°C
Dew
Point
°C
Rel
Hum
%
Delta-T

°C
Wind Press
QNH
hPa
Press
MSL
hPa
Rain
since
9 am
mm
Dir
 
Spd
km/h
Gust
km/h
Spd
kts
Gust
kts
25/11:30pm 13.6 11.9 10.0 79 1.9 N 9 11 5 6 1022.6 - -
25/11:00pm 13.5 11.4 9.9 79 1.8 N 11 13 6 7 1022.7 1022.7 -
25/10:30pm 13.2 11.9 9.8 80 1.7 N 7 9 4 5 1022.5 - -
25/10:00pm 14.3 12.7 10.1 76 2.2 NNE 9 11 5 6 1022.6 1022.6 -
25/09:30pm 14.5 13.2 9.9 74 2.4 N 7 9 4 5 1022.6 - -
25/09:00pm 15.1 13.5 10.1 72 2.6 N 9 13 5 7 1022.5 1022.5 0.0
25/08:30pm 15.2 13.5 10.0 71 2.7 N 9 11 5 6 1022.4 - -
25/08:00pm 15.9 13.5 10.0 68 3.1 N 13 17 7 9 1022.3 1022.3 -
25/07:30pm 16.5 14.1 10.1 66 3.4 N 13 19 7 10 1022.2 - -
25/07:00pm 17.0 14.2 9.9 63 3.7 N 15 19 8 10 1021.8 1021.8 -
25/06:30pm 18.1 14.5 9.7 58 4.4 NNW 19 24 10 13 1021.7 - -
25/06:00pm 18.5 14.8 9.6 56 4.7 NNW 19 28 10 15 1021.4 1021.4 -
25/05:30pm 18.2 15.3 9.5 57 4.6 NNW 15 19 8 10 1021.0 - -
25/05:00pm 19.1 15.9 9.9 55 4.9 N 17 24 9 13 1020.7 1020.7 -
25/04:30pm 20.0 15.8 9.9 52 5.4 NNW 22 28 12 15 1020.1 - -
25/04:00pm 20.2 15.2 9.7 51 5.6 NNW 26 33 14 18 1020.4 1020.4 -
25/03:30pm 20.8 16.6 9.7 49 6.0 NNW 22 32 12 17 1020.4 - -
25/03:00pm 20.1 14.7 9.4 50 5.7 N 28 43 15 23 1020.2 1020.2 -
25/02:46pm 20.5 15.0 9.1 48 6.0 N 28 46 15 25 1020.0 - -
25/02:30pm 21.5 16.1 9.4 46 6.5 N 28 43 15 23 1019.9 - -
25/02:00pm 21.8 16.0 9.3 45 6.7 N 30 41 16 22 1019.6 1019.6 -
25/01:30pm 21.6 15.2 9.2 45 6.6 N 33 44 18 24 1019.7 - -
25/01:00pm 20.9 16.3 9.8 49 6.0 N 24 35 13 19 1019.9 1019.9 -
25/12:30pm 19.4 15.1 9.3 52 5.3 N 22 28 12 15 1020.3 - -
25/12:00pm 19.4 15.2 9.9 54 5.1 NNW 22 30 12 16 1021.0 1021.0 0.0
25/11:30am 18.0 14.4 9.9 59 4.3 NNW 19 28 10 15 1021.6 - 0.0
25/11:00am 18.3 14.2 8.8 54 4.9 N 20 32 11 17 1021.0 1021.0 0.0
25/10:30am 16.9 14.0 9.8 63 3.7 NW 15 22 8 12 1022.4 - 0.0
25/10:16am 15.7 11.4 10.9 73 2.6 NNE 24 35 13 19 1021.9 - 0.0
25/10:00am 10.2 8.7 9.3 94 0.4 ESE 7 13 4 7 1022.6 1022.6 0.0
25/09:30am 9.4 6.6 8.5 94 0.4 ENE 13 20 7 11 1023.0 - 0.0
25/09:00am 8.7 5.5 8.3 97 0.2 NE 15 22 8 12 1022.8 1022.9 0.0
25/08:30am 6.9 4.8 6.6 98 0.1 NNE 7 11 4 6 1022.9 - 0.0
25/08:00am 6.5 3.5 6.2 98 0.1 NNE 11 17 6 9 1022.1 1022.1 0.0
25/07:30am 5.8 3.6 5.5 98 0.1 S 6 11 3 6 1022.3 - 0.0
25/07:00am 5.2 2.3 4.9 98 0.1 S 9 11 5 6 1021.7 1021.7 0.0
25/06:30am 5.2 2.7 4.9 98 0.1 N 7 15 4 8 1021.3 - 0.0
25/06:09am 3.3 1.8 3.0 98 0.1 CALM 0 0 0 0 1021.2 - 0.0
25/06:00am 3.0 1.4 2.7 98 0.1 CALM 0 0 0 0 1021.0 1021.0 0.0
25/05:59am 3.0 1.4 2.7 98 0.1 CALM 0 0 0 0 1021.0 - 0.0
25/05:58am 2.9 1.3 2.5 97 0.2 CALM 0 0 0 0 1021.0 - 0.0
25/05:37am 3.5 2.0 3.2 98 0.1 CALM 0 0 0 0 1020.6 - 0.0
25/05:30am 3.4 1.9 3.1 98 0.1 CALM 0 0 0 0 1020.4 - 0.0
25/05:21am 3.7 2.3 3.4 98 0.1 CALM 0 0 0 0 1020.3 - 0.0
25/05:00am 3.2 1.7 2.9 98 0.1 CALM 0 0 0 0 1020.3 1020.3 0.0
25/04:58am 3.3 1.8 3.0 98 0.1 CALM 0 0 0 0 1020.3 - 0.0
25/04:30am 3.4 1.9 3.1 98 0.1 CALM 0 0 0 0 1020.2 - 0.0
25/04:23am 3.4 1.9 3.1 98 0.1 CALM 0 0 0 0 1020.1 - 0.0
25/04:14am 3.1 1.6 2.8 98 0.1 CALM 0 0 0 0 1020.2 - 0.0
25/04:00am 3.1 1.5 2.7 97 0.2 CALM 0 0 0 0 1020.2 1020.2 0.0
25/03:30am 4.3 3.0 4.0 98 0.1 CALM 0 0 0 0 1020.1 - 0.0
25/03:00am 4.6 3.3 4.3 98 0.1 CALM 0 0 0 0 1020.1 1020.1 0.0
25/02:30am 4.6 3.3 4.3 98 0.1 CALM 0 0 0 0 1020.2 - 0.0
25/02:04am 4.7 3.4 4.3 97 0.2 CALM 0 0 0 0 1020.2 - 0.0
25/02:02am 4.6 3.3 4.0 96 0.3 CALM 0 0 0 0 1020.2 - 0.0
25/02:00am 4.7 3.4 4.1 96 0.3 CALM 0 0 0 0 1020.2 1020.2 0.0
25/01:59am 4.7 3.4 4.1 96 0.3 CALM 0 0 0 0 1020.2 - 0.0
25/01:34am 4.9 3.6 4.0 94 0.4 CALM 0 0 0 0 1020.2 - 0.0
25/01:30am 5.2 4.0 4.5 95 0.3 CALM 0 0 0 0 1020.2 - 0.0
25/01:28am 5.3 4.1 4.7 96 0.3 CALM 0 0 0 0 1020.2 - 0.0
25/01:17am 5.5 4.4 4.9 96 0.3 CALM 0 0 0 0 1020.2 - 0.0
25/01:10am 5.5 4.0 5.1 97 0.2 W 2 7 1 4 1020.1 - 0.0
25/01:00am 6.2 5.2 5.8 97 0.2 CALM 0 0 0 0 1020.1 1020.1 0.0
25/12:56am 5.9 4.9 5.5 97 0.2 CALM 0 0 0 0 1020.1 - 0.0
25/12:30am 6.8 6.0 6.5 98 0.1 CALM 0 0 0 0 1020.1 - 0.0
25/12:19am 6.4 5.5 6.0 97 0.2 CALM 0 0 0 0 1020.2 - 0.0
25/12:00am 7.1 5.6 6.8 98 0.1 W 4 6 2 3 1020.4 1020.4 0.0
 
Date/Time
EST
Tmp

°C
App
Tmp
°C
Dew
Point
°C
Rel
Hum
%
Delta-T

°C
Wind Press
QNH
hPa
Press
MSL
hPa
Rain
since
9 am
mm
Dir
 
Spd
km/h
Gust
km/h
Spd
kts
Gust
kts
24/11:55pm 6.6 5.0 6.2 97 0.2 W 4 6 2 3 1020.4 - 0.0
24/11:45pm 6.7 5.1 6.3 97 0.2 W 4 6 2 3 1020.4 - 0.0
24/11:30pm 6.4 4.3 6.0 97 0.2 W 6 7 3 4 1020.4 - 0.0
24/11:26pm 6.8 4.8 6.4 97 0.2 W 6 6 3 3 1020.4 - 0.0
24/11:22pm 7.1 5.2 6.8 98 0.1 WSW 6 6 3 3 1020.5 - 0.0
24/11:16pm 7.4 5.6 7.1 98 0.1 SSW 6 7 3 4 1020.5 - 0.0
24/11:00pm 7.5 6.4 7.1 97 0.2 SSW 2 6 1 3 1020.6 1020.6 0.0
24/10:58pm 7.8 7.2 7.4 97 0.2 CALM 0 6 0 3 1020.6 - 0.0
24/10:55pm 7.5 6.8 7.1 97 0.2 CALM 0 0 0 0 1020.7 - 0.0
24/10:47pm 7.6 6.9 7.0 96 0.3 CALM 0 0 0 0 1020.8 - 0.0
24/10:30pm 7.5 6.3 6.6 94 0.4 SSW 2 6 1 3 1020.8 - 0.0
24/10:00pm 8.8 8.3 7.7 93 0.5 CALM 0 0 0 0 1020.8 1020.8 0.0
24/09:30pm 9.4 8.4 7.5 88 0.9 N 2 7 1 4 1020.7 - 0.0
24/09:00pm 10.8 10.3 7.9 82 1.4 CALM 0 4 0 2 1020.7 1020.7 0.0
24/08:30pm 10.9 10.1 8.1 83 1.4 N 2 7 1 4 1020.6 - 0.0
24/08:00pm 11.2 10.0 7.9 80 1.6 N 4 7 2 4 1020.4 1020.4 0.0
24/07:30pm 11.5 9.8 8.4 81 1.5 NE 7 9 4 5 1020.2 - 0.0
24/07:00pm 13.0 11.4 8.9 76 2.1 NNE 7 9 4 5 1020.0 1020.0 0.0
24/06:30pm 13.1 11.2 9.0 76 2.1 NE 9 11 5 6 1019.8 - 0.0
24/06:00pm 13.2 10.4 8.5 73 2.3 NNE 13 15 7 8 1019.5 1019.5 0.0
24/05:30pm 14.5 11.8 9.1 70 2.8 NE 13 17 7 9 1019.3 - 0.0
24/05:00pm 15.2 11.8 9.3 68 3.0 NE 17 22 9 12 1019.1 1019.1 0.0
24/04:30pm 15.3 11.6 9.4 68 3.0 NE 19 22 10 12 1018.9 - 0.0
24/04:00pm 15.2 12.8 10.0 71 2.7 NE 13 20 7 11 1018.9 1018.9 0.0
24/03:30pm 15.4 12.7 10.2 71 2.7 NE 15 19 8 10 1018.9 - 0.0
24/03:00pm 15.8 13.4 10.1 69 3.0 NE 13 17 7 9 1018.8 1018.8 0.0
24/02:30pm 16.0 13.6 10.1 68 3.1 NE 13 17 7 9 1019.1 - 0.0
24/02:00pm 15.7 13.2 9.6 67 3.2 NE 13 17 7 9 1019.2 1019.2 0.0
24/01:30pm 15.0 13.2 9.6 70 2.8 E 9 13 5 7 1019.8 - 0.0
24/01:00pm 14.2 12.1 9.6 74 2.4 E 11 13 6 7 1020.4 1020.4 0.0
24/12:30pm 13.1 11.6 9.0 76 2.1 NE 7 11 4 6 1020.8 - 0.0
24/12:00pm 12.8 11.3 9.3 79 1.8 ENE 7 9 4 5 1021.2 1021.2 0.0
24/11:30am 11.7 10.1 8.9 83 1.4 E 7 9 4 5 1021.7 - 0.0
24/11:00am 11.3 10.3 8.7 84 1.3 NE 4 7 2 4 1022.6 1022.6 0.0
24/10:30am 10.0 8.2 8.1 88 0.9 NNE 7 9 4 5 1023.0 - 0.0
24/10:00am 9.2 7.8 8.9 98 0.1 NE 6 9 3 5 1023.1 1023.2 0.0
24/09:30am 7.6 5.8 7.3 98 0.1 NE 6 7 3 4 1023.1 - 0.0
24/09:29am 7.6 6.2 7.3 98 0.1 NE 4 7 2 4 1023.1 - 0.0
24/09:11am 6.8 6.0 6.5 98 0.1 CALM 0 4 0 2 1023.0 - 0.0
24/09:00am 6.5 5.2 6.2 98 0.1 NE 2 7 1 4 1023.1 1023.2 0.0
24/08:44am 5.4 3.2 5.1 98 0.1 NE 6 7 3 4 1023.0 - 0.0
24/08:30am 5.2 2.9 4.9 98 0.1 NE 6 7 3 4 1022.7 - 0.0
24/08:28am 5.1 2.8 4.8 98 0.1 NNE 6 7 3 4 1022.7 - 0.0
24/08:18am 4.9 2.6 4.6 98 0.1 NNE 6 7 3 4 1022.5 - 0.0
24/08:00am 4.1 2.0 3.8 98 0.1 N 4 7 2 4 1022.6 1022.6 0.0
24/07:30am 4.1 2.7 3.8 98 0.1 CALM 0 0 0 0 1022.6 - 0.0
24/07:00am 3.1 1.6 2.8 98 0.1 CALM 0 0 0 0 1022.3 1022.3 0.0
24/06:30am 3.5 2.0 3.2 98 0.1 CALM 0 0 0 0 1021.9 - 0.0
24/06:00am 3.5 2.0 3.2 98 0.1 CALM 0 0 0 0 1021.6 1021.6 0.0
24/05:30am 3.8 2.4 3.5 98 0.1 CALM 0 0 0 0 1021.4 - 0.0
24/05:00am 3.4 1.9 3.1 98 0.1 CALM 0 0 0 0 1021.2 1021.2 0.0
24/04:37am 3.9 2.5 3.6 98 0.1 CALM 0 0 0 0 1021.1 - 0.0
24/04:35am 3.8 2.4 3.5 98 0.1 CALM 0 0 0 0 1021.1 - 0.0
24/04:30am 3.8 2.4 3.5 98 0.1 CALM 0 0 0 0 1021.1 - 0.0
24/04:00am 4.3 3.0 4.0 98 0.1 CALM 0 0 0 0 1021.0 1021.0 0.0
24/03:30am 4.2 2.9 3.9 98 0.1 CALM 0 0 0 0 1021.0 - 0.0
24/03:17am 4.0 2.6 3.4 96 0.2 CALM 0 0 0 0 1021.2 - 0.0
24/03:07am 3.8 2.3 3.1 95 0.3 CALM 0 0 0 0 1021.3 - 0.0
24/03:00am 4.3 3.0 4.0 98 0.1 CALM 0 0 0 0 1021.3 1021.3 0.0
24/02:42am 4.4 3.1 4.0 97 0.2 CALM 0 0 0 0 1021.5 - 0.0
24/02:30am 5.3 4.2 5.0 98 0.1 CALM 0 0 0 0 1021.6 - 0.0
24/02:00am 5.6 4.5 5.3 98 0.1 CALM 0 0 0 0 1021.6 1021.6 0.0
24/01:46am 5.5 4.4 5.2 98 0.1 CALM 0 0 0 0 1021.7 - 0.0
24/01:32am 5.6 4.5 5.0 96 0.3 CALM 0 0 0 0 1021.6 - 0.0
24/01:30am 5.7 4.6 5.1 96 0.3 CALM 0 0 0 0 1021.7 - 0.0

Latest Capital City Observations: Canberra | Sydney | Melbourne | Brisbane | Adelaide | Perth | Hobart | Darwin

Other Formats:

Comma delimited format used in spreadsheet applications
http://www.bom.gov.au/fwo/IDN60901/IDN60901.95753.axf

JavaScript Object Notation format (JSON) in row-major order
http://www.bom.gov.au/fwo/IDN60901/IDN60901.95753.json